Clearlake, WA (98235)

5:19 PM PST on November 28, 2014 (GMT -0800)
Highlands | Change Station
CLOSE
Current Station
Personal Weather Station
Location: Mount Vernon, WA
Elevation: 499 ft
Nearby Weather Stations
Active Advisory: Flood Warning, Areal Flood Watch Active Notice: Record Report

Elev 499 ft 48.41 °N, 122.28 °W | Updated 2 minutes ago

Overcast
Overcast
37.0 °F
Feels Like 37 °F
N
0.0
Wind Variable Wind from South

Today
High -- | Low -- °F
--% Chance of Precip.
Yesterday
High -- | Low -- °F
Precip. -- in
7:35 AM 4:17 PM
Waxing Crescent, 46% visible
Pressure 29.48 in
Visibility 10.0 miles
Clouds Few 3400 ft
Scattered Clouds 4000 ft
Overcast 4800 ft
Windchill 37 °F
Dew Point 37 °F
Humidity 99%
Rainfall 1.01 in
Snow Depth Not available.
UV 0 out of 12
Pollen .10 out of 12
Air Quality Not available.
Flu Activity Not available.
METAR KBVS 290055Z AUTO 13003KT 10SM FEW034 SCT040 OVC048 04/03 A2948 RMK A01 P000

More Conditions Fewer Conditions

Pressure 29.48 in
Visibility 10.0 miles
Clouds Few 3400 ft
Scattered Clouds 4000 ft
Overcast 4800 ft
Windchill 37 °F
Dew Point 37 °F
Humidity 99%
Rainfall 1.01 in
Snow Depth Not available.
UV 0 out of 12
Pollen .10 out of 12
Air Quality Not available.
Flu Activity Not available.
METAR KBVS 290055Z AUTO 13003KT 10SM FEW034 SCT040 OVC048 04/03 A2948 RMK A01 P000

More Conditions Fewer Conditions

10-Day Weather Forecast

Almanac

Astronomy

Nov. 28, 2014 Rise Set
Actual Time
Civil Twilight
Nautical Twilight
Astronomical Twilight
Moon
Length of Visible Light
Length of Day
Tomorrow will be .
, % of the Moon is Illuminated

Today's Extremes

State Highs State Lows

Community

WunderPhotos

Upload Photos

1,774,361 photos uploaded!

WunderBlogs® & News

Nearby

Air Quality

  Air Quality AQ Index Pollutant
Not available.

Snow Depth

Station Depth Elevation

Earthquake Activity

City Distance Mag. Time & Date
Minimum magnitude displayed is 2.5.

Coastal Water Temperatures

Place Temperature

Nearby Weather Stations